Time;durP1;ratioP1;P1;durP2;ratioP2;P2;SDS_P1;SDS_P2;PMS_P1;PMS_P2;Temp;Humidity;BMP_temperature;BMP_pressure;BME280_temperature;BME280_humidity;BME280_pressure;Samples;Min_cycle;Max_cycle;Signal;HPM_P1;HPM_P2
2023/03/15 00:02:02;;;;;;;9.90;9.50;;;6.40;36.50;;;;;;4949768;29;20209;-75
2023/03/15 00:04:31;;;;;;;11.00;10.50;;;6.30;36.70;;;;;;4951724;29;20435;-77
2023/03/15 00:06:57;;;;;;;11.67;11.27;;;6.40;36.30;;;;;;4951759;28;20432;-76
2023/03/15 00:09:23;;;;;;;11.30;10.90;;;6.50;35.70;;;;;;4952061;29;20785;-76
2023/03/15 00:11:49;;;;;;;12.10;11.50;;;6.30;35.90;;;;;;4950499;29;20443;-76
2023/03/15 00:14:15;;;;;;;11.67;11.17;;;6.00;38.80;;;;;;4950928;28;20442;-75
2023/03/15 00:16:41;;;;;;;10.70;10.30;;;6.10;37.50;;;;;;4951097;29;20506;-75
2023/03/15 00:19:08;;;;;;;12.97;12.27;;;6.20;36.90;;;;;;4949888;29;20239;-75
2023/03/15 00:21:34;;;;;;;11.43;10.93;;;6.10;37.30;;;;;;4949821;29;20467;-73
2023/03/15 00:24:00;;;;;;;11.33;10.83;;;5.90;38.60;;;;;;4950745;28;20972;-77
2023/03/15 00:26:25;;;;;;;12.70;11.97;;;6.10;37.70;;;;;;4954235;29;20168;-74
2023/03/15 00:28:51;;;;;;;11.80;11.20;;;5.90;37.80;;;;;;4954034;29;20418;-74
2023/03/15 00:31:19;;;;;;;11.00;10.50;;;5.90;38.60;;;;;;4952966;29;20231;-75
2023/03/15 00:33:45;;;;;;;13.00;12.20;;;6.00;37.60;;;;;;4954497;29;20258;-76
2023/03/15 00:36:11;;;;;;;12.47;11.77;;;5.90;38.80;;;;;;4954588;29;20587;-75
2023/03/15 00:38:38;;;;;;;11.93;11.30;;;6.00;37.00;;;;;;4954582;29;20728;-75
2023/03/15 00:41:08;;;;;;;11.50;10.70;;;6.20;36.20;;;;;;4953997;29;20454;-75
2023/03/15 00:43:34;;;;;;;11.40;10.90;;;6.10;37.00;;;;;;4954441;28;20523;-74
2023/03/15 00:46:00;;;;;;;11.43;10.93;;;6.10;37.20;;;;;;4953142;29;21000;-74
2023/03/15 00:48:26;;;;;;;12.43;11.63;;;6.10;36.60;;;;;;4953484;29;20422;-75
2023/03/15 00:51:04;;;;;;;11.80;11.20;;;6.20;36.50;;;;;;4954059;29;20442;-74
2023/03/15 00:53:30;;;;;;;11.97;11.23;;;6.10;37.10;;;;;;4956394;28;20186;-74
2023/03/15 00:55:56;;;;;;;11.57;10.73;;;6.20;37.30;;;;;;4953565;29;20415;-75
2023/03/15 00:58:21;;;;;;;10.53;9.73;;;6.20;37.30;;;;;;4953926;29;20266;-76
2023/03/15 01:00:47;;;;;;;10.23;9.63;;;6.40;35.40;;;;;;4953722;29;20224;-75
2023/03/15 01:03:13;;;;;;;11.50;10.80;;;6.60;34.60;;;;;;4953034;29;20203;-75
2023/03/15 01:05:39;;;;;;;10.77;10.27;;;6.70;34.20;;;;;;4954296;29;20254;-74
2023/03/15 01:08:05;;;;;;;11.30;10.40;;;6.80;33.60;;;;;;4954721;29;20449;-74
2023/03/15 01:10:33;;;;;;;10.57;9.97;;;6.80;33.80;;;;;;4954430;29;20997;-76
2023/03/15 01:12:58;;;;;;;10.60;10.00;;;6.70;34.10;;;;;;4955175;29;20209;-75
2023/03/15 01:15:24;;;;;;;10.33;9.67;;;6.70;33.20;;;;;;4953363;29;20442;-76
2023/03/15 01:17:49;;;;;;;10.63;9.97;;;6.70;33.10;;;;;;4952546;29;20183;-76
2023/03/15 01:20:15;;;;;;;11.00;10.30;;;6.40;34.70;;;;;;4953249;29;20570;-76
2023/03/15 01:22:41;;;;;;;10.87;10.37;;;6.20;35.60;;;;;;4952367;29;20215;-76
2023/03/15 01:25:08;;;;;;;9.87;9.47;;;6.10;35.60;;;;;;4952298;29;20176;-76
2023/03/15 01:27:33;;;;;;;11.00;10.33;;;5.70;36.00;;;;;;4953600;29;20993;-76
2023/03/15 01:29:59;;;;;;;10.40;9.90;;;5.70;36.80;;;;;;4951728;29;20458;-75
2023/03/15 01:32:25;;;;;;;10.33;9.57;;;5.80;36.60;;;;;;4937299;29;20182;-76
2023/03/15 01:34:50;;;;;;;10.10;9.50;;;5.90;35.70;;;;;;4953643;28;20180;-75
2023/03/15 01:37:16;;;;;;;10.60;10.00;;;5.90;35.60;;;;;;4951973;28;20414;-74
2023/03/15 01:39:42;;;;;;;10.60;10.10;;;5.90;35.40;;;;;;4951759;29;20558;-75
2023/03/15 01:42:08;;;;;;;9.80;9.40;;;6.10;35.30;;;;;;4953542;29;20218;-75
2023/03/15 01:44:53;;;;;;;10.17;9.57;;;6.20;35.10;;;;;;4952829;29;20632;-76
2023/03/15 01:47:19;;;;;;;10.40;9.73;;;5.90;34.60;;;;;;4954300;29;20422;-74
2023/03/15 01:49:49;;;;;;;9.80;9.30;;;5.70;34.20;;;;;;4964110;29;20419;-75
2023/03/15 01:52:24;;;;;;;10.53;9.87;;;5.60;34.70;;;;;;4965381;29;20457;-75
2023/03/15 01:54:54;;;;;;;9.97;9.37;;;5.80;34.30;;;;;;4971399;29;20418;-76
2023/03/15 01:57:26;;;;;;;9.80;9.20;;;5.80;33.30;;;;;;4974933;28;20419;-76
2023/03/15 02:00:00;;;;;;;9.43;9.03;;;5.60;34.60;;;;;;4975518;28;20458;-76
2023/03/15 02:02:27;;;;;;;9.43;8.83;;;5.50;34.10;;;;;;4976815;28;20423;-77
2023/03/15 02:05:10;;;;;;;9.80;9.23;;;5.40;35.30;;;;;;4976320;28;20514;-77
2023/03/15 02:07:38;;;;;;;9.50;9.00;;;5.50;34.00;;;;;;4976602;28;20418;-77
2023/03/15 02:10:08;;;;;;;9.03;8.73;;;5.60;34.10;;;;;;4975263;28;20433;-76
2023/03/15 02:12:41;;;;;;;10.53;9.83;;;5.80;34.10;;;;;;4976101;29;20466;-76
2023/03/15 02:15:08;;;;;;;9.53;8.97;;;5.50;32.50;;;;;;4975924;28;20433;-76
2023/03/15 02:17:37;;;;;;;9.53;9.13;;;5.60;32.60;;;;;;4976309;29;20415;-76
2023/03/15 02:20:14;;;;;;;10.00;9.20;;;5.70;33.40;;;;;;4976363;28;20479;-75
2023/03/15 02:22:45;;;;;;;9.60;8.80;;;5.70;32.40;;;;;;4976930;28;20414;-77
2023/03/15 02:25:18;;;;;;;9.47;9.03;;;5.70;32.10;;;;;;4976424;28;20447;-77
2023/03/15 02:27:44;;;;;;;10.00;9.40;;;5.80;33.00;;;;;;4976641;28;20418;-77
2023/03/15 02:30:11;;;;;;;10.00;9.50;;;5.90;32.50;;;;;;4977028;28;20490;-77
2023/03/15 02:32:36;;;;;;;8.97;8.47;;;6.10;32.40;;;;;;4977025;28;20199;-77
2023/03/15 02:35:02;;;;;;;9.77;9.17;;;6.20;30.80;;;;;;4971760;28;20437;-75
2023/03/15 02:37:28;;;;;;;9.90;9.37;;;6.10;30.70;;;;;;4953808;29;20266;-75
2023/03/15 02:39:53;;;;;;;9.00;8.50;;;6.10;30.80;;;;;;4952308;29;20944;-76
2023/03/15 02:42:19;;;;;;;9.03;8.40;;;6.20;30.20;;;;;;4952087;29;20203;-74
2023/03/15 02:44:47;;;;;;;9.33;8.83;;;5.80;31.20;;;;;;4952279;28;20186;-74
2023/03/15 02:47:18;;;;;;;9.60;9.10;;;5.60;31.90;;;;;;4952823;28;20431;-75
2023/03/15 02:49:47;;;;;;;9.27;8.77;;;5.30;32.60;;;;;;4952911;29;20851;-76
2023/03/15 02:52:13;;;;;;;9.50;9.10;;;5.40;33.80;;;;;;4952965;29;20469;-74
2023/03/15 02:54:42;;;;;;;11.07;10.23;;;5.50;32.90;;;;;;4952657;29;20416;-75
2023/03/15 02:57:08;;;;;;;9.30;8.90;;;5.50;32.20;;;;;;4952822;29;20623;-76
2023/03/15 02:59:34;;;;;;;9.20;8.80;;;5.30;32.00;;;;;;4951445;29;20510;-74
2023/03/15 03:02:00;;;;;;;9.50;9.00;;;5.20;32.70;;;;;;4952377;29;20518;-75
2023/03/15 03:04:26;;;;;;;9.10;8.70;;;5.10;33.10;;;;;;4951570;29;20604;-76
2023/03/15 03:06:51;;;;;;;9.53;8.83;;;5.20;33.60;;;;;;4949773;29;20463;-75
2023/03/15 03:09:17;;;;;;;9.10;8.60;;;5.20;33.10;;;;;;4950944;29;20258;-75
2023/03/15 03:11:42;;;;;;;9.37;8.73;;;5.00;32.90;;;;;;4950677;29;20274;-76
2023/03/15 03:14:08;;;;;;;9.90;9.40;;;4.80;34.30;;;;;;4951296;29;20702;-75
2023/03/15 03:16:34;;;;;;;8.83;8.33;;;4.70;34.50;;;;;;4951044;29;20630;-74
2023/03/15 03:18:59;;;;;;;10.13;9.27;;;4.70;35.60;;;;;;4949481;29;20182;-75
2023/03/15 03:21:25;;;;;;;9.37;8.77;;;4.60;36.40;;;;;;4950912;29;20703;-74
2023/03/15 03:23:50;;;;;;;10.43;9.80;;;4.50;37.70;;;;;;4949438;29;20655;-74
2023/03/15 03:26:17;;;;;;;10.23;9.63;;;4.40;37.00;;;;;;4949746;29;20250;-76
2023/03/15 03:28:45;;;;;;;9.77;9.13;;;4.40;37.10;;;;;;4935557;29;20469;-75
2023/03/15 03:31:22;;;;;;;10.17;9.20;;;4.50;36.90;;;;;;4950254;29;20996;-75
2023/03/15 03:33:48;;;;;;;10.40;9.70;;;4.50;36.70;;;;;;4951209;28;20784;-75
2023/03/15 03:36:13;;;;;;;11.27;10.63;;;4.50;37.00;;;;;;4949336;29;20479;-75
2023/03/15 03:38:41;;;;;;;10.20;9.63;;;4.50;37.00;;;;;;4951434;29;20175;-74
2023/03/15 03:41:07;;;;;;;9.97;9.57;;;4.50;36.80;;;;;;4951834;29;20455;-75
2023/03/15 03:43:33;;;;;;;10.07;9.50;;;4.50;37.90;;;;;;4950165;28;20418;-74
2023/03/15 03:45:59;;;;;;;10.37;9.77;;;4.40;38.00;;;;;;4949328;29;20419;-74
2023/03/15 03:48:24;;;;;;;10.30;9.80;;;4.30;37.90;;;;;;4948908;29;20238;-75
2023/03/15 03:50:50;;;;;;;10.03;9.53;;;4.30;36.90;;;;;;4949434;29;20297;-75
2023/03/15 03:53:15;;;;;;;9.80;9.20;;;4.30;37.90;;;;;;4948399;29;20214;-75
2023/03/15 03:55:41;;;;;;;10.77;10.27;;;4.30;37.90;;;;;;4950272;29;20179;-75
2023/03/15 03:58:07;;;;;;;10.23;9.50;;;4.30;37.40;;;;;;4949855;29;20207;-75
2023/03/15 04:00:34;;;;;;;10.30;9.77;;;4.60;36.60;;;;;;4955676;28;20437;-75
2023/03/15 04:03:00;;;;;;;11.07;10.37;;;4.60;36.40;;;;;;4957077;28;20426;-75
2023/03/15 04:05:26;;;;;;;10.80;10.20;;;4.60;36.70;;;;;;4956972;29;20423;-76
2023/03/15 04:07:52;;;;;;;10.63;10.00;;;4.60;36.60;;;;;;4956284;28;20933;-75
2023/03/15 04:10:18;;;;;;;11.07;10.60;;;4.60;35.50;;;;;;4956476;29;20537;-75
2023/03/15 04:12:43;;;;;;;11.43;10.40;;;4.70;34.70;;;;;;4957433;29;20203;-75
2023/03/15 04:15:10;;;;;;;10.00;9.30;;;4.60;35.40;;;;;;4956956;29;20250;-75
2023/03/15 04:17:37;;;;;;;10.67;10.00;;;4.70;35.50;;;;;;4956129;29;20182;-75
2023/03/15 04:20:09;;;;;;;10.87;9.97;;;4.70;35.10;;;;;;4956837;28;20471;-75
2023/03/15 04:22:34;;;;;;;10.97;10.13;;;4.60;35.70;;;;;;4957031;28;20770;-75
2023/03/15 04:25:00;;;;;;;11.90;11.40;;;4.50;34.60;;;;;;4956731;28;20418;-75
2023/03/15 04:27:27;;;;;;;10.50;9.77;;;4.30;36.60;;;;;;4957049;28;20180;-74
2023/03/15 04:29:53;;;;;;;11.60;11.10;;;4.40;35.40;;;;;;4955439;28;20466;-75
2023/03/15 04:32:19;;;;;;;11.23;10.53;;;4.30;35.90;;;;;;4956804;29;20502;-75
2023/03/15 04:34:50;;;;;;;12.43;11.50;;;4.30;36.20;;;;;;4956034;29;20184;-74
2023/03/15 04:37:16;;;;;;;11.30;10.80;;;4.40;36.00;;;;;;4956090;28;20211;-74
2023/03/15 04:39:42;;;;;;;11.53;11.03;;;4.50;35.50;;;;;;4956346;29;20434;-74
2023/03/15 04:42:07;;;;;;;12.37;11.63;;;4.40;34.90;;;;;;4957748;29;20442;-74
2023/03/15 04:44:33;;;;;;;11.10;10.50;;;4.30;34.90;;;;;;4958905;28;20629;-74
2023/03/15 04:46:58;;;;;;;11.63;10.73;;;4.20;36.10;;;;;;4955505;29;20465;-74
2023/03/15 04:49:24;;;;;;;11.87;11.17;;;4.10;35.10;;;;;;4969032;28;20194;-75
2023/03/15 04:51:50;;;;;;;11.80;11.30;;;4.10;36.30;;;;;;4968510;28;20707;-76
2023/03/15 04:54:15;;;;;;;12.40;11.70;;;4.00;35.50;;;;;;4976824;28;20199;-77
2023/03/15 04:56:41;;;;;;;11.10;10.60;;;4.00;36.40;;;;;;4976234;28;20190;-76
2023/03/15 04:59:07;;;;;;;11.97;11.33;;;4.10;35.70;;;;;;4970287;28;20182;-77
2023/03/15 05:01:33;;;;;;;11.53;10.83;;;4.00;35.50;;;;;;4965303;28;20207;-76
2023/03/15 05:03:59;;;;;;;12.23;11.27;;;4.10;36.00;;;;;;4971454;28;20466;-76
2023/03/15 05:06:24;;;;;;;11.90;11.30;;;4.20;36.00;;;;;;4975277;28;20182;-75
2023/03/15 05:08:50;;;;;;;10.90;10.20;;;4.30;35.20;;;;;;4977129;28;20441;-75
2023/03/15 05:11:15;;;;;;;12.33;11.67;;;4.40;34.70;;;;;;4976898;28;20676;-75
2023/03/15 05:13:41;;;;;;;11.50;10.77;;;4.60;33.70;;;;;;4972097;28;20183;-77
2023/03/15 05:16:07;;;;;;;12.30;11.70;;;4.50;32.60;;;;;;4969433;28;20179;-76
2023/03/15 05:18:33;;;;;;;11.17;10.17;;;4.60;32.70;;;;;;4965641;28;20222;-76
2023/03/15 05:20:58;;;;;;;11.23;10.47;;;4.40;32.50;;;;;;4972243;28;20207;-77
2023/03/15 05:23:24;;;;;;;12.43;11.77;;;4.40;33.70;;;;;;4975918;28;20238;-76
2023/03/15 05:25:54;;;;;;;12.00;11.30;;;4.50;33.90;;;;;;4967988;28;20190;-77
2023/03/15 05:28:24;;;;;;;12.63;11.63;;;4.60;33.40;;;;;;4975535;28;20901;-77
2023/03/15 05:30:53;;;;;;;11.93;10.93;;;4.70;33.00;;;;;;4973877;28;20592;-76
2023/03/15 05:33:20;;;;;;;10.93;10.33;;;4.80;32.20;;;;;;4975068;28;20454;-76
2023/03/15 05:35:45;;;;;;;11.27;10.47;;;5.00;32.10;;;;;;4974446;28;20469;-77
2023/03/15 05:38:15;;;;;;;12.30;11.30;;;4.80;31.90;;;;;;4974232;28;20414;-77
2023/03/15 05:40:44;;;;;;;11.07;10.40;;;4.70;33.20;;;;;;4975502;28;20265;-77
2023/03/15 05:43:10;;;;;;;12.40;11.50;;;4.70;32.20;;;;;;4973873;28;20425;-77
2023/03/15 05:45:36;;;;;;;12.73;11.90;;;4.60;32.20;;;;;;4961617;28;20438;-77
2023/03/15 05:48:03;;;;;;;12.70;11.50;;;4.70;33.10;;;;;;4964304;28;20446;-76
2023/03/15 05:50:29;;;;;;;12.63;11.13;;;4.70;32.20;;;;;;4967369;28;20441;-77
2023/03/15 05:52:55;;;;;;;11.67;10.80;;;4.60;31.40;;;;;;4974850;28;20910;-77
2023/03/15 05:55:21;;;;;;;12.37;11.37;;;4.50;32.00;;;;;;4975146;28;20497;-77
2023/03/15 05:57:47;;;;;;;11.40;10.70;;;4.40;32.10;;;;;;4974965;28;20505;-77
2023/03/15 06:00:14;;;;;;;11.53;10.90;;;4.40;32.00;;;;;;4975020;28;20402;-77
2023/03/15 06:02:40;;;;;;;11.70;11.10;;;4.40;32.40;;;;;;4974593;28;20178;-77
2023/03/15 06:05:06;;;;;;;11.77;11.07;;;4.40;32.20;;;;;;4967225;28;20449;-75
2023/03/15 06:07:32;;;;;;;11.97;10.87;;;4.50;32.50;;;;;;4975326;28;20958;-77
2023/03/15 06:09:57;;;;;;;11.43;10.30;;;4.60;31.90;;;;;;4974985;28;20410;-76
2023/03/15 06:12:23;;;;;;;11.67;11.07;;;4.80;31.60;;;;;;4975008;28;20234;-77
2023/03/15 06:14:48;;;;;;;17.23;15.73;;;5.00;30.20;;;;;;4974690;28;20170;-77
2023/03/15 06:17:14;;;;;;;11.50;10.80;;;5.20;31.10;;;;;;4964982;28;20179;-76
2023/03/15 06:19:39;;;;;;;11.33;10.67;;;5.30;30.40;;;;;;4966158;28;20183;-77
2023/03/15 06:22:06;;;;;;;11.80;11.20;;;5.70;29.30;;;;;;4964999;28;20222;-76
2023/03/15 06:24:32;;;;;;;11.07;10.17;;;5.80;29.30;;;;;;4971454;28;20473;-76
2023/03/15 06:26:57;;;;;;;12.63;11.93;;;5.80;28.40;;;;;;4971714;28;20199;-77
2023/03/15 06:29:23;;;;;;;12.40;11.23;;;5.90;28.90;;;;;;4971679;28;20186;-76
2023/03/15 06:31:49;;;;;;;10.97;10.30;;;5.90;27.20;;;;;;4973025;28;20213;-75
2023/03/15 06:34:15;;;;;;;12.10;11.00;;;5.80;26.30;;;;;;4973196;28;20418;-75
2023/03/15 06:36:48;;;;;;;13.47;12.47;;;5.40;27.10;;;;;;4974524;28;20175;-77
2023/03/15 06:39:14;;;;;;;12.07;11.17;;;5.00;28.80;;;;;;4975314;28;20995;-76
2023/03/15 06:41:40;;;;;;;12.13;11.33;;;5.00;28.70;;;;;;4972813;28;20548;-77
2023/03/15 06:44:06;;;;;;;12.03;11.33;;;5.00;29.30;;;;;;4974688;28;20414;-76
2023/03/15 06:46:32;;;;;;;11.80;11.00;;;4.90;28.80;;;;;;4974241;28;20465;-75
2023/03/15 06:48:57;;;;;;;12.50;11.90;;;4.80;28.90;;;;;;4974389;28;20426;-76
2023/03/15 06:51:23;;;;;;;11.97;11.07;;;4.90;30.20;;;;;;4974061;28;20269;-77
2023/03/15 06:53:49;;;;;;;12.23;11.33;;;4.90;29.40;;;;;;4975082;28;20249;-78
2023/03/15 06:56:14;;;;;;;11.17;10.50;;;5.00;29.70;;;;;;4974414;28;20704;-79
2023/03/15 06:58:40;;;;;;;11.60;10.90;;;5.00;28.80;;;;;;4977258;28;20633;-78
2023/03/15 07:01:05;;;;;;;13.60;12.30;;;5.00;29.10;;;;;;4977434;28;20249;-79
2023/03/15 07:03:31;;;;;;;12.03;10.87;;;5.00;28.80;;;;;;4976341;28;20175;-77
2023/03/15 07:05:56;;;;;;;12.10;11.37;;;4.90;28.80;;;;;;4974777;28;20186;-78
2023/03/15 07:08:23;;;;;;;11.57;10.87;;;4.70;29.10;;;;;;4977658;28;20186;-77
2023/03/15 07:10:49;;;;;;;12.80;11.90;;;4.60;30.00;;;;;;4978143;28;20258;-79
2023/03/15 07:13:15;;;;;;;11.77;10.97;;;4.80;30.00;;;;;;4975797;28;20512;-77
2023/03/15 07:15:41;;;;;;;11.60;10.67;;;5.00;28.80;;;;;;4976370;28;20186;-78
2023/03/15 07:18:06;;;;;;;12.97;12.07;;;5.00;29.20;;;;;;4975393;28;20414;-79
2023/03/15 07:20:33;;;;;;;12.43;11.40;;;5.10;29.10;;;;;;4975612;28;20273;-77
2023/03/15 07:22:58;;;;;;;12.03;11.13;;;5.20;28.90;;;;;;4974673;28;20178;-77
2023/03/15 07:25:24;;;;;;;12.50;11.33;;;5.00;28.30;;;;;;4974409;28;20790;-77
2023/03/15 07:27:51;;;;;;;13.47;12.57;;;5.00;28.80;;;;;;4973669;28;20190;-78
2023/03/15 07:30:18;;;;;;;11.60;11.00;;;4.80;28.70;;;;;;4965707;28;20437;-76
2023/03/15 07:32:44;;;;;;;13.23;12.03;;;5.00;28.80;;;;;;4966440;28;20472;-76
2023/03/15 07:35:10;;;;;;;12.23;11.23;;;4.90;28.80;;;;;;4965167;28;20933;-79
2023/03/15 07:37:35;;;;;;;11.47;10.77;;;4.70;28.60;;;;;;4966807;28;20178;-77
2023/03/15 07:40:08;;;;;;;11.17;10.47;;;4.70;28.60;;;;;;4970352;28;20449;-77
2023/03/15 07:42:37;;;;;;;11.33;10.53;;;4.80;28.70;;;;;;4976885;28;20170;-77
2023/03/15 07:45:07;;;;;;;11.43;10.73;;;4.70;28.60;;;;;;4976091;28;20509;-77
2023/03/15 07:47:32;;;;;;;11.10;10.40;;;4.80;28.70;;;;;;4970649;28;20426;-78
2023/03/15 07:49:58;;;;;;;11.80;11.00;;;4.70;28.90;;;;;;4971140;28;20905;-77
2023/03/15 07:52:24;;;;;;;11.53;10.83;;;4.70;29.20;;;;;;4963334;28;20202;-77
2023/03/15 07:54:50;;;;;;;12.33;11.63;;;4.80;28.70;;;;;;4957892;28;20183;-76
2023/03/15 07:57:15;;;;;;;12.53;11.50;;;4.80;28.80;;;;;;4989870;28;20798;-77
2023/03/15 07:59:41;;;;;;;12.80;11.80;;;4.80;29.10;;;;;;4994092;28;20174;-77
2023/03/15 08:02:11;;;;;;;11.67;10.80;;;4.80;29.60;;;;;;4994720;28;20227;-77
2023/03/15 08:04:37;;;;;;;11.07;10.13;;;4.90;29.60;;;;;;4996372;28;20186;-78
2023/03/15 08:07:02;;;;;;;11.07;10.43;;;5.00;29.60;;;;;;4996876;28;20416;-77
2023/03/15 08:09:28;;;;;;;14.53;10.80;;;5.10;29.40;;;;;;4995968;28;20695;-77
2023/03/15 08:11:53;;;;;;;11.20;10.50;;;5.20;28.90;;;;;;4996589;28;20233;-78
2023/03/15 08:14:19;;;;;;;12.13;11.43;;;5.20;28.90;;;;;;4990341;28;20236;-77
2023/03/15 08:16:45;;;;;;;11.20;10.50;;;5.20;28.90;;;;;;4964694;28;20197;-76
2023/03/15 08:19:10;;;;;;;11.57;10.63;;;5.20;28.50;;;;;;4974589;28;20494;-74
2023/03/15 08:21:36;;;;;;;10.80;10.20;;;5.30;28.70;;;;;;4996293;28;20263;-78
2023/03/15 08:24:01;;;;;;;9.60;9.00;;;5.40;28.60;;;;;;4975777;28;20186;-78
2023/03/15 08:26:27;;;;;;;11.30;10.40;;;5.40;26.80;;;;;;4985217;28;20186;-78
2023/03/15 08:28:52;;;;;;;11.90;10.80;;;5.40;27.80;;;;;;4987998;28;20179;-77
2023/03/15 08:31:18;;;;;;;11.00;10.40;;;5.50;27.90;;;;;;4976548;28;20207;-76
2023/03/15 08:33:43;;;;;;;9.57;9.07;;;5.50;27.50;;;;;;4990101;28;20203;-75
2023/03/15 08:36:09;;;;;;;10.10;9.50;;;5.50;26.70;;;;;;4991121;28;20183;-77
2023/03/15 08:38:35;;;;;;;10.40;9.70;;;5.50;26.80;;;;;;4974098;28;20675;-77
2023/03/15 08:41:01;;;;;;;10.23;9.73;;;5.60;26.90;;;;;;4973270;28;20538;-76
2023/03/15 08:43:26;;;;;;;10.27;9.53;;;5.70;26.30;;;;;;4973534;28;20182;-77
2023/03/15 08:45:52;;;;;;;9.60;8.90;;;5.80;26.30;;;;;;4991771;28;20186;-77
2023/03/15 08:48:18;;;;;;;9.53;9.07;;;5.90;26.40;;;;;;4998944;28;20181;-77
2023/03/15 08:50:43;;;;;;;9.33;8.63;;;5.90;25.40;;;;;;4999894;28;20198;-77
2023/03/15 08:53:09;;;;;;;10.83;9.90;;;6.00;24.90;;;;;;4998783;28;20205;-78
2023/03/15 08:55:36;;;;;;;9.23;8.63;;;6.10;25.50;;;;;;4988767;28;20182;-78
2023/03/15 08:58:02;;;;;;;10.90;10.30;;;6.30;24.70;;;;;;4961556;29;20422;-77
2023/03/15 09:00:27;;;;;;;10.10;9.63;;;6.50;24.40;;;;;;4965035;29;20441;-77
2023/03/15 09:02:54;;;;;;;9.60;9.10;;;6.60;24.00;;;;;;4970646;29;20513;-77
2023/03/15 09:05:23;;;;;;;10.87;10.17;;;6.90;23.40;;;;;;4970108;29;20642;-78
2023/03/15 09:07:51;;;;;;;12.07;11.07;;;6.70;22.50;;;;;;4964114;29;20419;-77
2023/03/15 09:10:18;;;;;;;10.70;10.20;;;6.70;23.50;;;;;;4967166;29;20462;-77
2023/03/15 09:12:46;;;;;;;9.73;9.10;;;7.00;23.40;;;;;;4961923;29;20605;-78
2023/03/15 09:15:12;;;;;;;9.90;9.40;;;7.00;22.10;;;;;;4959869;29;20450;-78
2023/03/15 09:17:42;;;;;;;10.70;10.00;;;6.90;22.70;;;;;;4960514;29;20474;-78
2023/03/15 09:20:13;;;;;;;10.00;9.30;;;7.00;22.40;;;;;;4958704;29;20418;-76
2023/03/15 09:22:48;;;;;;;10.77;10.07;;;7.20;22.10;;;;;;4959964;28;20458;-76
2023/03/15 09:25:13;;;;;;;10.03;9.43;;;7.10;22.10;;;;;;4966890;28;20422;-76
2023/03/15 09:27:39;;;;;;;10.53;9.83;;;7.00;22.60;;;;;;4964975;28;20427;-76
2023/03/15 09:30:05;;;;;;;10.80;10.10;;;7.00;22.60;;;;;;4974268;28;20242;-76
2023/03/15 09:32:35;;;;;;;10.43;9.80;;;7.00;22.00;;;;;;4977942;28;20236;-77
2023/03/15 09:35:02;;;;;;;10.90;10.30;;;7.00;22.00;;;;;;4982783;28;20431;-76
2023/03/15 09:37:27;;;;;;;9.40;9.00;;;6.90;22.00;;;;;;4974956;28;20432;-76
2023/03/15 09:39:53;;;;;;;9.37;8.87;;;7.00;22.00;;;;;;4974661;28;21020;-77
2023/03/15 09:42:34;;;;;;;9.77;9.07;;;7.00;21.00;;;;;;4963380;28;20342;-76
2023/03/15 09:45:26;;;;;;;10.03;9.33;;;6.90;21.30;;;;;;4966308;28;20190;-77
2023/03/15 09:48:11;;;;;;;9.90;9.37;;;6.90;20.90;;;;;;4951250;28;20798;-77
2023/03/15 09:50:52;;;;;;;9.50;8.90;;;6.90;21.00;;;;;;4955468;29;20480;-77
2023/03/15 09:53:30;;;;;;;8.30;7.83;;;7.00;20.90;;;;;;4969177;28;20473;-76
2023/03/15 09:55:57;;;;;;;9.93;9.43;;;6.80;20.80;;;;;;4968770;28;20916;-76
2023/03/15 09:58:33;;;;;;;8.63;7.93;;;6.60;21.80;;;;;;4975174;28;20421;-76
2023/03/15 10:01:06;;;;;;;9.57;8.97;;;6.70;21.90;;;;;;4975944;28;20433;-76
2023/03/15 10:03:45;;;;;;;8.50;8.00;;;6.80;21.10;;;;;;4984030;28;20426;-76
2023/03/15 10:06:18;;;;;;;9.23;8.63;;;6.90;21.40;;;;;;4975376;28;20428;-75
2023/03/15 10:08:46;;;;;;;8.37;7.97;;;6.90;20.80;;;;;;4969045;28;20838;-76
2023/03/15 10:11:33;;;;;;;9.03;8.43;;;6.90;20.90;;;;;;4975556;28;20445;-75
2023/03/15 10:14:17;;;;;;;8.53;8.00;;;7.00;20.20;;;;;;4974066;28;20445;-75
2023/03/15 10:16:48;;;;;;;9.20;8.60;;;6.90;20.80;;;;;;4973715;28;20410;-75
2023/03/15 10:19:14;;;;;;;12.83;11.83;;;7.10;20.30;;;;;;4975221;28;20569;-78
2023/03/15 10:21:53;;;;;;;8.77;8.27;;;7.10;20.20;;;;;;4973588;28;20508;-75
2023/03/15 10:24:30;;;;;;;8.13;7.73;;;7.30;19.90;;;;;;4973562;28;20179;-74
2023/03/15 10:27:00;;;;;;;8.23;7.50;;;7.20;18.00;;;;;;4973650;28;20417;-76
2023/03/15 10:29:27;;;;;;;7.87;7.47;;;7.30;19.10;;;;;;4973278;28;20785;-77
2023/03/15 10:31:53;;;;;;;8.27;7.70;;;7.30;18.10;;;;;;4974326;28;20457;-76
2023/03/15 10:34:20;;;;;;;7.67;7.27;;;7.40;17.50;;;;;;4974974;28;20784;-77
2023/03/15 10:36:48;;;;;;;8.57;8.07;;;7.50;17.70;;;;;;4973279;28;20433;-76
2023/03/15 10:39:15;;;;;;;9.00;8.50;;;7.40;17.50;;;;;;4974675;28;20493;-76
2023/03/15 10:41:46;;;;;;;8.50;7.87;;;7.50;18.00;;;;;;4974199;28;20457;-77
2023/03/15 10:44:21;;;;;;;8.47;8.07;;;7.70;18.20;;;;;;4973174;28;20434;-77
2023/03/15 10:47:06;;;;;;;8.50;7.80;;;7.70;18.00;;;;;;4970487;28;20438;-77
2023/03/15 10:49:35;;;;;;;7.37;7.07;;;7.90;18.60;;;;;;4970943;28;20508;-77
2023/03/15 10:52:01;;;;;;;7.30;6.87;;;8.20;17.80;;;;;;4975258;28;20513;-78
2023/03/15 10:54:26;;;;;;;6.90;6.60;;;8.40;17.60;;;;;;4977266;28;20477;-78
2023/03/15 10:57:01;;;;;;;7.50;7.17;;;8.60;17.50;;;;;;4977136;28;20747;-79
2023/03/15 10:59:30;;;;;;;6.83;6.53;;;8.40;17.30;;;;;;4976505;28;20485;-78
2023/03/15 11:02:11;;;;;;;7.33;7.03;;;8.20;17.60;;;;;;4975872;28;20484;-78
2023/03/15 11:04:41;;;;;;;6.87;6.57;;;8.20;18.40;;;;;;4975738;28;20494;-78
2023/03/15 11:07:07;;;;;;;7.03;6.63;;;8.40;18.40;;;;;;4965207;28;20950;-77
2023/03/15 14:16:41;;;;;;;8.33;7.97;;;7.80;29.00;;;;;;5179054;23;20582;-78
2023/03/15 14:19:20;;;;;;;9.67;9.27;;;7.90;28.90;;;;;;4925603;29;20436;-77
2023/03/15 14:21:51;;;;;;;8.80;8.40;;;8.00;29.50;;;;;;4917572;29;20416;-78
2023/03/15 14:24:38;;;;;;;8.53;8.03;;;8.00;30.80;;;;;;4917932;29;20409;-78
2023/03/15 14:27:16;;;;;;;7.67;7.33;;;8.10;29.40;;;;;;4917885;29;20911;-77
2023/03/15 14:29:46;;;;;;;9.13;8.60;;;8.00;30.10;;;;;;4917942;29;20433;-78
2023/03/15 14:32:29;;;;;;;9.83;8.90;;;7.80;29.60;;;;;;4900442;29;20464;-78
2023/03/15 14:35:04;;;;;;;8.60;8.20;;;7.90;29.60;;;;;;4900421;29;20456;-78
2023/03/15 14:37:37;;;;;;;8.23;7.83;;;8.10;28.90;;;;;;4918705;29;20507;-78
2023/03/15 14:40:21;;;;;;;8.90;8.50;;;8.30;27.20;;;;;;4919851;29;20464;-79
2023/03/15 14:42:48;;;;;;;8.70;8.20;;;8.40;26.40;;;;;;4917315;29;20424;-78
2023/03/15 14:45:16;;;;;;;8.97;8.57;;;8.50;27.00;;;;;;4917329;29;20987;-77
2023/03/15 14:47:46;;;;;;;8.03;7.73;;;8.60;27.10;;;;;;4900759;29;20424;-77
2023/03/15 14:50:18;;;;;;;7.90;7.60;;;8.70;27.00;;;;;;4900669;29;20441;-78
2023/03/15 14:52:44;;;;;;;8.90;8.50;;;8.70;26.10;;;;;;4917338;29;20532;-78
2023/03/15 14:55:17;;;;;;;7.87;7.57;;;8.80;26.00;;;;;;4917444;29;20417;-77
2023/03/15 14:57:42;;;;;;;8.40;8.10;;;8.80;26.20;;;;;;4917264;29;20476;-77
2023/03/15 15:00:14;;;;;;;7.57;7.27;;;8.70;27.30;;;;;;4900227;29;20901;-78
2023/03/15 15:02:39;;;;;;;7.97;7.57;;;8.70;28.20;;;;;;4917167;29;20659;-78
2023/03/15 15:05:28;;;;;;;9.20;8.80;;;8.70;28.10;;;;;;4900293;29;20436;-78
2023/03/15 15:08:05;;;;;;;9.67;9.07;;;8.60;29.00;;;;;;4917035;29;20177;-78
2023/03/15 15:10:33;;;;;;;8.43;8.10;;;8.40;30.00;;;;;;4917200;29;20460;-77
2023/03/15 15:12:59;;;;;;;9.33;8.90;;;8.10;31.60;;;;;;4899802;29;20464;-77
2023/03/15 15:15:25;;;;;;;8.93;8.53;;;8.10;31.50;;;;;;4917100;29;20986;-78
2023/03/15 15:17:52;;;;;;;9.47;9.07;;;8.00;32.70;;;;;;4900150;29;20428;-78
2023/03/15 15:20:18;;;;;;;9.17;8.67;;;7.90;32.40;;;;;;4899963;29;20204;-78
2023/03/15 15:22:45;;;;;;;8.83;8.53;;;7.90;32.70;;;;;;4899832;29;20425;-78
2023/03/15 15:25:15;;;;;;;9.60;9.10;;;7.90;33.30;;;;;;4916057;29;20488;-79
2023/03/15 15:27:41;;;;;;;9.27;8.97;;;7.90;33.70;;;;;;4917969;29;20484;-79
2023/03/15 15:30:14;;;;;;;9.60;9.20;;;7.40;37.20;;;;;;4903223;29;20451;-79
2023/03/15 15:32:40;;;;;;;10.00;9.70;;;6.90;37.80;;;;;;4920032;29;20888;-80
2023/03/15 15:35:07;;;;;;;9.27;8.87;;;6.70;39.80;;;;;;4903751;29;20795;-79
2023/03/15 15:37:34;;;;;;;8.97;8.67;;;6.90;38.00;;;;;;4904173;29;20421;-79
2023/03/15 15:39:59;;;;;;;8.07;7.77;;;6.90;38.50;;;;;;4907178;29;20461;-81
2023/03/15 15:42:25;;;;;;;7.90;7.70;;;7.10;37.80;;;;;;4902302;29;20436;-80
2023/03/15 15:44:50;;;;;;;7.93;7.63;;;7.20;36.30;;;;;;4901402;29;20542;-79
2023/03/15 15:47:16;;;;;;;9.17;8.87;;;7.20;35.10;;;;;;4902025;29;20233;-79
2023/03/15 15:49:41;;;;;;;9.07;8.77;;;6.50;38.10;;;;;;4884999;29;20237;-80
2023/03/15 15:52:13;;;;;;;8.90;8.60;;;6.40;39.90;;;;;;4902127;29;20602;-79
2023/03/15 15:54:39;;;;;;;9.30;9.00;;;6.60;39.40;;;;;;4905111;29;20682;-78
2023/03/15 15:57:06;;;;;;;9.20;8.90;;;6.30;40.20;;;;;;4901745;29;20445;-79